Search for airport 
image banner adimage banner adimage banner ad
image banner ad

5CA0 - Dreamworks Helistop Glendale

Located in Glendale, United States

ICAO - 5CA0, IATA -

Data provided by Airmate  

General information

Coordinates: N34°9'30" W118°17'9"
Elevation is 513 feet MSL.
Magnetic variation is 14° East
View others Airports in California

Operational data

Special qualification required
Current time UTC:
Current local time:
Weather at : KBUR - Bob Hope ( 8 km )
METAR: KBUR 231353Z 00000KT 10SM CLR 21/10 A2992 RMK AO2 SLP118 T02110100 $
TAF: KBUR 231144Z 2312/2412 VRB03KT P6SM SKC FM232000 18010KT P6SM SKC FM240300 13006KT P6SM SKC FM240800 VRB03KT P6SM SKC
View NOTAMs / SUP AIP / TFR affecting this airport [VIEW]
Communications frequencies: [VIEW]

Runways:

Airport contact information

Address: Glendale United States

Satellite view of 5CA0